METAR Data
IDs: Format: Raw Decoded Include TAF

Data at: 1628 UTC 03 Dec 2021

KJCT 031551Z AUTO VRB03KT 10SM SCT110 22/16 A3009 RMK AO2 SLP158 T02170161